Los Angeles, CA (90051)

12:17 PM PDT on August 30, 2015 (GMT -0700)
Downtown Los Angeles | | Change Station
CLOSE
Current Station
Personal Weather Station
Location: Los Angeles, CA
Elevation: 343 ft
Nearby Weather Stations

Elev 343 ft 34.06 °N, 118.26 °W | Updated 1 minute ago

Clear
Clear
84.4 °F
Feels Like 88 °F
N
5.0
Wind Variable Wind from SSW
Gusts 12.0 mph

Today
High -- | Low -- °F
--% Chance of Precip.
Yesterday
High -- | Low -- °F
Precip. -- in
6:25 AM 7:21 PM
Full, 98% visible
Pressure 29.88 in
Visibility 10.0 miles
Clouds Clear
Heat Index 88 °F
Dew Point 68 °F
Humidity 58%
Rainfall 0.00 in
Snow Depth Not available.
UV 10 out of 12
Pollen 6.00 out of 12
Air Quality Not available.
Flu Activity Not available.
METAR KCQT 301847Z AUTO VRB04KT 10SM CLR 31/18 A2989 RMK AO2 SLP119 T03060178
Pressure 29.88 in
Visibility 10.0 miles
Clouds Clear
Heat Index 88 °F
Dew Point 68 °F
Humidity 58%
Rainfall 0.00 in
Snow Depth Not available.
UV 10 out of 12
Pollen 6.00 out of 12
Air Quality Not available.
Flu Activity Not available.
METAR KCQT 301847Z AUTO VRB04KT 10SM CLR 31/18 A2989 RMK AO2 SLP119 T03060178

10-Day Weather Forecast

×

Almanac

Astronomy

Aug. 30, 2015 Rise Set
Actual Time
Civil Twilight
Nautical Twilight
Astronomical Twilight
Moon
Length of Visible Light
Length of Day
Tomorrow will be .
, % of the Moon is Illuminated

Today's Extremes

State Highs State Lows

Community

WunderPhotos

Upload Photos

1,851,036 photos uploaded!

WunderBlogs® & News

Nearby

Air Quality

  Air Quality AQ Index Pollutant
Not available.

Snow Depth

Station Depth Elevation

Earthquake Activity

City Distance Mag. Time & Date
Minimum magnitude displayed is 2.5.

Coastal Water Temperatures

Place Temperature

Stations

Nearby Weather Stations

Station Location Temp. Windchill Dew Point Humidity Wind Precip. Elev Updated Type